createdAt,value
2019-03-19T00:01:10.606Z,-0.05
2019-03-19T00:03:37.655Z,-0.05
2019-03-19T00:06:04.940Z,-0.07
2019-03-19T00:08:32.346Z,-0.08
2019-03-19T00:10:59.383Z,-0.10
2019-03-19T00:13:26.427Z,-0.16
2019-03-19T00:15:53.472Z,-0.17
2019-03-19T00:18:20.841Z,-0.17
2019-03-19T00:20:47.896Z,-0.19
2019-03-19T00:23:15.184Z,-0.19
2019-03-19T00:25:42.234Z,-0.16
2019-03-19T00:28:09.548Z,-0.18
2019-03-19T00:30:36.599Z,-0.18
2019-03-19T00:33:04.056Z,-0.11
2019-03-19T00:35:31.424Z,-0.06
2019-03-19T00:37:58.455Z,0.02
2019-03-19T00:40:25.508Z,0.08
2019-03-19T00:42:52.552Z,0.16
2019-03-19T00:45:19.828Z,0.20
2019-03-19T00:47:47.175Z,0.25
2019-03-19T00:50:15.296Z,0.30
2019-03-19T00:52:42.605Z,0.35
2019-03-19T00:55:09.945Z,0.32
2019-03-19T00:57:37.298Z,0.31
2019-03-19T01:00:04.597Z,0.31
2019-03-19T01:02:31.702Z,0.26
2019-03-19T01:04:59.072Z,0.24
2019-03-19T01:07:26.113Z,0.24
2019-03-19T01:09:53.170Z,0.22
2019-03-19T01:12:20.202Z,0.17
2019-03-19T01:14:48.576Z,0.13
2019-03-19T01:17:15.613Z,0.09
2019-03-19T01:19:42.670Z,0.04
2019-03-19T01:22:10.026Z,0.00
2019-03-19T01:24:37.078Z,-0.04
2019-03-19T01:27:04.126Z,-0.07
2019-03-19T01:29:31.180Z,-0.10
2019-03-19T01:31:58.224Z,-0.13
2019-03-19T01:34:25.346Z,-0.14
2019-03-19T01:36:52.635Z,-0.11
2019-03-19T01:39:19.688Z,-0.08
2019-03-19T01:41:47.049Z,-0.02
2019-03-19T01:44:14.336Z,0.02
2019-03-19T01:46:41.640Z,0.04
2019-03-19T01:49:08.992Z,0.05
2019-03-19T01:51:36.360Z,0.05
2019-03-19T01:54:04.740Z,0.04
2019-03-19T01:56:32.058Z,0.01
2019-03-19T01:59:00.064Z,0.03
2019-03-19T02:01:27.116Z,0.03
2019-03-19T02:03:54.399Z,0.06
2019-03-19T02:06:21.490Z,0.11
2019-03-19T02:08:48.764Z,0.19
2019-03-19T02:11:15.816Z,0.20
2019-03-19T02:13:42.857Z,0.14
2019-03-19T02:16:09.969Z,0.11
2019-03-19T02:18:37.002Z,0.17
2019-03-19T02:21:04.288Z,0.24
2019-03-19T02:23:31.315Z,0.33
2019-03-19T02:25:58.351Z,0.43
2019-03-19T02:28:25.381Z,0.49
2019-03-19T02:30:52.435Z,0.51
2019-03-19T02:33:19.728Z,0.50
2019-03-19T02:35:47.011Z,0.50
2019-03-19T02:38:14.287Z,0.51
2019-03-19T02:40:41.354Z,0.56
2019-03-19T02:43:08.604Z,0.59
2019-03-19T02:45:35.652Z,0.64
2019-03-19T02:48:03.903Z,0.69
2019-03-19T02:50:31.220Z,0.74
2019-03-19T02:52:58.504Z,0.74
2019-03-19T02:55:25.797Z,0.72
2019-03-19T02:57:52.901Z,0.65
2019-03-19T03:00:20.182Z,0.52
2019-03-19T03:02:47.309Z,0.33
2019-03-19T03:05:14.344Z,0.19
2019-03-19T03:07:41.628Z,0.05
2019-03-19T03:10:08.661Z,-0.03
2019-03-19T03:12:35.715Z,-0.04
2019-03-19T03:15:02.988Z,-0.06
2019-03-19T03:17:30.291Z,-0.10
2019-03-19T03:19:57.468Z,-0.11
2019-03-19T03:22:24.518Z,-0.08
2019-03-19T03:24:51.794Z,-0.06
2019-03-19T03:27:18.843Z,-0.03
2019-03-19T03:29:45.876Z,-0.01
2019-03-19T03:32:13.187Z,0.05
2019-03-19T03:34:40.485Z,0.13
2019-03-19T03:37:07.532Z,0.22
2019-03-19T03:39:34.806Z,0.29
2019-03-19T03:42:02.102Z,0.30
2019-03-19T03:44:29.381Z,0.26
2019-03-19T03:46:57.400Z,0.24
2019-03-19T03:49:24.429Z,0.18
2019-03-19T03:51:51.474Z,0.15
2019-03-19T03:54:18.500Z,0.21
2019-03-19T03:56:45.544Z,0.30
2019-03-19T03:59:12.818Z,0.37
2019-03-19T04:01:39.884Z,0.39
2019-03-19T04:04:06.951Z,0.33
2019-03-19T04:06:33.967Z,0.22
2019-03-19T04:09:01.256Z,0.18
2019-03-19T04:11:29.817Z,0.23
2019-03-19T04:13:57.105Z,0.27
2019-03-19T04:16:24.394Z,0.29
2019-03-19T04:18:51.435Z,0.32
2019-03-19T04:21:18.473Z,0.38
2019-03-19T04:23:45.755Z,0.42
2019-03-19T04:26:13.024Z,0.45
2019-03-19T04:28:40.071Z,0.48
2019-03-19T04:31:07.105Z,0.55
2019-03-19T04:33:34.398Z,0.60
2019-03-19T04:36:01.676Z,0.57
2019-03-19T04:38:28.969Z,0.50
2019-03-19T04:40:56.241Z,0.48
2019-03-19T04:46:13.716Z,0.44
2019-03-19T04:48:41.592Z,0.43
2019-03-19T04:51:08.936Z,0.44
2019-03-19T04:53:36.291Z,0.47
2019-03-19T04:56:10.013Z,0.52
2019-03-19T04:58:37.063Z,0.55
2019-03-19T05:01:04.397Z,0.55
2019-03-19T05:03:31.755Z,0.50
2019-03-19T05:05:59.703Z,0.42
2019-03-19T05:08:27.300Z,0.30
2019-03-19T05:10:54.640Z,0.22
2019-03-19T05:15:58.667Z,0.11
2019-03-19T05:18:25.961Z,0.10
2019-03-19T05:20:53.296Z,0.13
2019-03-19T05:23:20.472Z,0.14
2019-03-19T05:25:47.505Z,0.10
2019-03-19T05:28:14.554Z,0.06
2019-03-19T05:30:41.585Z,0.06
2019-03-19T05:33:08.637Z,0.12
2019-03-19T05:35:35.670Z,0.12
2019-03-19T05:38:02.963Z,0.17
2019-03-19T05:40:29.999Z,0.24
2019-03-19T05:42:57.329Z,0.31
2019-03-19T05:45:24.673Z,0.37
2019-03-19T05:47:51.708Z,0.41
2019-03-19T05:50:18.766Z,0.47
2019-03-19T05:52:48.269Z,0.53
2019-03-19T05:55:14.786Z,0.53
2019-03-19T05:57:49.559Z,0.52
2019-03-19T06:00:10.653Z,0.52
2019-03-19T06:02:38.892Z,0.52
2019-03-19T06:05:05.947Z,0.63
2019-03-19T06:07:33.052Z,0.74
2019-03-19T06:10:00.378Z,0.88
2019-03-19T06:12:27.657Z,1.02
2019-03-19T06:14:54.981Z,1.19
2019-03-19T06:17:22.075Z,1.43
2019-03-19T06:19:49.065Z,2.49
2019-03-19T06:22:16.095Z,3.89
2019-03-19T06:24:43.211Z,5.14
2019-03-19T06:27:10.243Z,6.20
2019-03-19T06:29:37.580Z,7.10
2019-03-19T06:32:04.932Z,7.91
2019-03-19T06:34:32.288Z,8.66
2019-03-19T06:36:59.658Z,9.34
2019-03-19T06:39:27.016Z,9.81
2019-03-19T06:41:54.050Z,10.21
2019-03-19T06:44:21.103Z,10.63
2019-03-19T06:46:48.141Z,10.90
2019-03-19T06:49:15.516Z,11.12
2019-03-19T06:51:42.851Z,11.52
2019-03-19T06:54:10.154Z,12.03
2019-03-19T06:56:38.264Z,12.66
2019-03-19T06:59:05.314Z,13.13
2019-03-19T07:01:32.357Z,12.70
2019-03-19T07:03:59.408Z,13.14
2019-03-19T07:06:26.451Z,13.75
2019-03-19T07:08:53.824Z,13.44
2019-03-19T07:11:20.876Z,11.99
2019-03-19T07:13:48.161Z,11.65
2019-03-19T07:16:15.203Z,12.32
2019-03-19T07:18:42.531Z,12.95
2019-03-19T07:21:09.582Z,13.65
2019-03-19T07:23:36.949Z,14.16
2019-03-19T07:26:03.998Z,14.40
2019-03-19T07:28:32.361Z,14.55
2019-03-19T07:30:59.715Z,14.53
2019-03-19T07:33:27.088Z,14.63
2019-03-19T07:35:54.141Z,14.77
2019-03-19T07:38:21.183Z,15.41
2019-03-19T07:40:48.244Z,16.15
2019-03-19T07:43:15.572Z,16.82
2019-03-19T07:45:42.944Z,17.34
2019-03-19T07:48:10.282Z,17.28
2019-03-19T07:50:37.637Z,17.25
2019-03-19T07:53:05.003Z,16.82
2019-03-19T07:55:32.346Z,15.72
2019-03-19T07:57:59.625Z,14.39
2019-03-19T08:00:26.673Z,13.53
2019-03-19T08:02:53.714Z,12.86
2019-03-19T08:05:20.764Z,12.47
2019-03-19T08:07:48.128Z,12.26
2019-03-19T08:10:15.454Z,13.59
2019-03-19T08:12:42.812Z,14.69
2019-03-19T08:15:09.856Z,14.88
2019-03-19T08:17:36.902Z,15.58
2019-03-19T08:20:04.274Z,15.02
2019-03-19T08:22:31.332Z,13.28
2019-03-19T08:24:59.439Z,12.44
2019-03-19T08:27:26.487Z,13.09
2019-03-19T08:29:54.904Z,12.97
2019-03-19T08:32:22.208Z,12.68
2019-03-19T08:34:49.515Z,13.82
2019-03-19T08:37:16.871Z,15.16
2019-03-19T08:39:44.224Z,16.09
2019-03-19T08:42:11.615Z,16.85
2019-03-19T08:44:38.864Z,17.02
2019-03-19T08:47:05.912Z,16.83
2019-03-19T08:49:32.950Z,17.06
2019-03-19T08:52:00.300Z,17.52
2019-03-19T08:54:27.340Z,17.94
2019-03-19T08:56:54.624Z,18.74
2019-03-19T08:59:21.939Z,18.96
2019-03-19T09:01:49.296Z,19.59
2019-03-19T09:04:16.396Z,20.25
2019-03-19T09:06:43.451Z,20.91
2019-03-19T09:09:10.477Z,21.19
2019-03-19T09:11:37.808Z,20.62
2019-03-19T09:14:05.149Z,18.95
2019-03-19T09:16:32.502Z,17.03
2019-03-19T09:18:59.877Z,15.58
2019-03-19T09:21:27.233Z,14.52
2019-03-19T09:23:54.265Z,13.61
2019-03-19T09:26:21.312Z,14.22
2019-03-19T09:28:48.665Z,15.31
2019-03-19T09:31:16.022Z,16.64
2019-03-19T09:33:43.373Z,17.82
2019-03-19T09:36:10.656Z,18.69
2019-03-19T09:38:38.783Z,19.59
2019-03-19T09:41:06.156Z,20.42
2019-03-19T09:43:33.527Z,19.63
2019-03-19T09:46:00.864Z,18.77
2019-03-19T09:48:28.379Z,19.05
2019-03-19T09:50:55.799Z,19.47
2019-03-19T09:53:22.856Z,19.58
2019-03-19T09:55:50.184Z,20.21
2019-03-19T09:58:17.545Z,20.14
2019-03-19T10:00:44.913Z,18.58
2019-03-19T10:03:12.249Z,17.03
2019-03-19T10:05:40.256Z,17.02
2019-03-19T10:08:07.371Z,17.51
2019-03-19T10:10:34.829Z,15.95
2019-03-19T10:13:02.286Z,14.82
2019-03-19T10:15:29.327Z,14.09
2019-03-19T10:17:56.381Z,13.18
2019-03-19T10:20:23.415Z,12.85
2019-03-19T10:22:50.783Z,13.07
2019-03-19T10:25:18.260Z,13.63
2019-03-19T10:27:45.315Z,14.08
2019-03-19T10:30:12.667Z,15.09
2019-03-19T10:32:40.017Z,14.45
2019-03-19T10:35:07.058Z,13.64
2019-03-19T10:37:34.173Z,12.85
2019-03-19T10:40:01.218Z,12.79
2019-03-19T10:42:28.261Z,14.74
2019-03-19T10:44:55.296Z,16.76
2019-03-19T10:47:22.695Z,18.67
2019-03-19T10:49:49.977Z,20.14
2019-03-19T10:52:17.304Z,21.28
2019-03-19T10:54:45.405Z,22.31
2019-03-19T10:57:12.457Z,22.43
2019-03-19T10:59:48.778Z,22.20
2019-03-19T11:02:08.584Z,22.02
2019-03-19T11:04:35.615Z,20.28
2019-03-19T11:07:02.973Z,18.57
2019-03-19T11:09:30.324Z,17.23
2019-03-19T11:11:57.377Z,16.25
2019-03-19T11:14:24.420Z,15.58
2019-03-19T11:16:51.800Z,15.14
2019-03-19T11:19:18.853Z,16.33
2019-03-19T11:21:47.304Z,16.09
2019-03-19T11:24:15.685Z,15.41
2019-03-19T11:26:43.040Z,16.59
2019-03-19T11:29:10.397Z,17.73
2019-03-19T11:31:37.750Z,17.56
2019-03-19T11:34:05.309Z,18.53
2019-03-19T11:36:32.348Z,17.95
2019-03-19T11:38:59.732Z,16.09
2019-03-19T11:41:26.770Z,15.26
2019-03-19T11:43:54.117Z,14.53
2019-03-19T11:46:21.510Z,13.16
2019-03-19T11:48:48.564Z,12.42
2019-03-19T11:51:15.876Z,12.11
2019-03-19T11:53:43.229Z,11.96
2019-03-19T11:56:10.264Z,12.04
2019-03-19T11:58:37.388Z,12.37
2019-03-19T12:01:04.425Z,13.25
2019-03-19T12:03:31.568Z,15.75
2019-03-19T12:05:58.603Z,16.55
2019-03-19T12:08:25.699Z,15.80
2019-03-19T12:10:53.076Z,15.00
2019-03-19T12:13:20.126Z,13.94
2019-03-19T12:15:47.161Z,14.23
2019-03-19T12:18:14.209Z,16.13
2019-03-19T12:20:42.461Z,16.39
2019-03-19T12:23:09.751Z,17.36
2019-03-19T12:25:37.053Z,18.93
2019-03-19T12:28:04.100Z,18.56
2019-03-19T12:30:31.229Z,17.66
2019-03-19T12:32:58.277Z,19.15
2019-03-19T12:35:25.316Z,19.95
2019-03-19T12:37:52.653Z,21.38
2019-03-19T12:40:19.688Z,22.59
2019-03-19T12:42:47.992Z,22.75
2019-03-19T12:45:15.053Z,23.21
2019-03-19T12:47:42.382Z,21.78
2019-03-19T12:50:09.429Z,19.56
2019-03-19T12:52:36.785Z,18.27
2019-03-19T12:55:04.158Z,18.97
2019-03-19T12:57:31.278Z,17.28
2019-03-19T12:59:58.323Z,15.76
2019-03-19T13:02:25.613Z,14.57
2019-03-19T13:04:52.661Z,13.79
2019-03-19T13:07:19.702Z,15.26
2019-03-19T13:09:47.041Z,15.46
2019-03-19T13:12:14.074Z,15.64
2019-03-19T13:14:41.121Z,16.81
2019-03-19T13:17:08.512Z,17.28
2019-03-19T13:19:35.565Z,17.07
2019-03-19T13:22:02.594Z,15.82
2019-03-19T13:24:29.645Z,14.21
2019-03-19T13:26:56.929Z,12.78
2019-03-19T13:29:23.978Z,12.14
2019-03-19T13:31:51.019Z,11.76
2019-03-19T13:34:18.319Z,11.27
2019-03-19T13:36:45.693Z,10.79
2019-03-19T13:39:13.048Z,10.36
2019-03-19T13:41:40.090Z,10.13
2019-03-19T13:44:07.137Z,10.10
2019-03-19T13:46:34.517Z,10.15
2019-03-19T13:49:01.878Z,10.27
2019-03-19T13:51:29.209Z,10.39
2019-03-19T13:53:56.571Z,10.44
2019-03-19T13:56:24.434Z,10.17
2019-03-19T13:58:51.808Z,9.97
2019-03-19T14:01:18.841Z,9.77
2019-03-19T14:03:45.882Z,9.77
2019-03-19T14:06:12.939Z,9.59
2019-03-19T14:08:39.969Z,9.58
2019-03-19T14:11:07.017Z,9.63
2019-03-19T14:13:34.049Z,9.70
2019-03-19T14:16:01.430Z,9.75
2019-03-19T14:18:28.537Z,9.53
2019-03-19T14:20:55.959Z,9.31
2019-03-19T14:23:23.241Z,9.16
2019-03-19T14:25:50.756Z,9.01
2019-03-19T14:28:19.706Z,8.98
2019-03-19T14:30:46.873Z,8.94
2019-03-19T14:33:13.896Z,8.92
2019-03-19T14:35:40.941Z,8.96
2019-03-19T14:38:08.046Z,9.03
2019-03-19T14:40:35.099Z,9.13
2019-03-19T14:43:02.133Z,9.14
2019-03-19T14:45:29.494Z,8.98
2019-03-19T14:47:56.525Z,9.06
2019-03-19T14:50:23.576Z,9.23
2019-03-19T14:52:50.616Z,9.19
2019-03-19T14:55:17.661Z,9.16
2019-03-19T14:57:44.697Z,9.04
2019-03-19T15:00:11.744Z,8.98
2019-03-19T15:02:39.128Z,9.06
2019-03-19T15:05:06.196Z,9.01
2019-03-19T15:07:33.552Z,9.11
2019-03-19T15:10:00.908Z,9.00
2019-03-19T15:12:29.015Z,8.74
2019-03-19T15:14:56.065Z,8.62
2019-03-19T15:17:23.096Z,8.50
2019-03-19T15:19:50.151Z,8.27
2019-03-19T15:22:17.483Z,7.98
2019-03-19T15:24:44.680Z,7.87
2019-03-19T15:27:12.069Z,7.71
2019-03-19T15:29:39.440Z,7.46
2019-03-19T15:32:06.778Z,7.27
2019-03-19T15:34:33.813Z,7.18
2019-03-19T15:37:01.827Z,7.03
2019-03-19T15:39:28.868Z,6.95
2019-03-19T15:41:56.196Z,6.85
2019-03-19T15:44:23.581Z,6.77
2019-03-19T15:46:50.927Z,6.75
2019-03-19T15:49:18.286Z,6.80
2019-03-19T15:51:45.637Z,6.85
2019-03-19T15:54:12.971Z,6.80
2019-03-19T15:56:40.324Z,6.76
2019-03-19T15:59:08.919Z,6.69
2019-03-19T16:04:15.019Z,6.59
2019-03-19T16:09:31.498Z,6.51
2019-03-19T16:12:00.912Z,6.52
2019-03-19T16:20:05.610Z,6.41
2019-03-19T16:25:06.281Z,6.29
2019-03-19T16:30:19.956Z,6.15
2019-03-19T16:32:57.063Z,6.13
2019-03-19T16:35:26.306Z,6.10
2019-03-19T16:38:02.523Z,6.05
2019-03-19T16:40:34.355Z,6.00
2019-03-19T16:45:32.899Z,5.92
2019-03-19T16:48:00.939Z,5.86
2019-03-19T16:50:28.125Z,5.78
2019-03-19T16:53:02.503Z,5.70
2019-03-19T17:00:56.350Z,5.48
2019-03-19T17:03:30.341Z,5.39
2019-03-19T17:06:02.807Z,5.34
2019-03-19T17:14:06.327Z,5.12
2019-03-19T17:16:39.261Z,5.03
2019-03-19T17:19:10.691Z,4.95
2019-03-19T17:21:42.066Z,4.84
2019-03-19T17:24:11.643Z,4.72
2019-03-19T17:26:39.080Z,4.54
2019-03-19T17:29:06.108Z,4.39
2019-03-19T17:36:53.287Z,4.09
2019-03-19T17:39:20.653Z,4.03
2019-03-19T17:41:52.193Z,3.99
2019-03-19T17:44:24.593Z,3.95
2019-03-19T17:46:54.832Z,3.93
2019-03-19T17:49:24.009Z,3.90
2019-03-19T17:51:51.179Z,3.85
2019-03-19T17:54:19.333Z,3.89
2019-03-19T17:56:49.431Z,3.97
2019-03-19T17:59:18.940Z,4.02
2019-03-19T18:01:46.492Z,4.04
2019-03-19T18:04:22.004Z,4.08
2019-03-19T18:06:49.602Z,4.03
2019-03-19T18:09:16.972Z,3.96
2019-03-19T18:11:45.744Z,3.86
2019-03-19T18:14:20.063Z,3.81
2019-03-19T18:19:21.038Z,3.73
2019-03-19T18:21:49.520Z,3.69
2019-03-19T18:24:22.990Z,3.62
2019-03-19T18:26:50.559Z,3.59
2019-03-19T18:29:24.300Z,3.58
2019-03-19T18:31:51.348Z,3.57
2019-03-19T18:34:26.768Z,3.54
2019-03-19T18:36:54.212Z,3.49
2019-03-19T18:39:25.768Z,3.42
2019-03-19T18:41:55.400Z,3.39
2019-03-19T18:47:12.215Z,3.40
2019-03-19T18:49:40.509Z,3.37
2019-03-19T18:52:12.340Z,3.36
2019-03-19T18:54:40.839Z,3.33
2019-03-19T18:57:07.894Z,3.32
2019-03-19T18:59:42.096Z,3.28
2019-03-19T19:02:12.358Z,3.25
2019-03-19T19:04:51.880Z,3.26
2019-03-19T19:07:19.204Z,3.23
2019-03-19T19:09:47.690Z,3.14
2019-03-19T19:12:15.059Z,3.07
2019-03-19T19:17:46.459Z,2.98
2019-03-19T19:20:14.623Z,2.92
2019-03-19T19:22:42.149Z,2.86
2019-03-19T19:25:27.668Z,2.80
2019-03-19T19:27:54.961Z,2.75
2019-03-19T19:30:24.147Z,2.64
2019-03-19T19:33:01.689Z,2.57
2019-03-19T19:35:23.323Z,2.48
2019-03-19T19:43:11.548Z,2.31
2019-03-19T19:45:39.712Z,2.18
2019-03-19T19:48:07.965Z,1.86
2019-03-19T19:50:41.143Z,1.75
2019-03-19T19:55:41.713Z,2.01
2019-03-19T19:58:10.148Z,2.02
2019-03-19T20:00:52.490Z,1.90
2019-03-19T20:03:20.771Z,1.89
2019-03-19T20:05:49.207Z,1.94
2019-03-19T20:08:21.934Z,2.01
2019-03-19T20:10:49.854Z,2.03
2019-03-19T20:13:18.443Z,2.11
2019-03-19T20:15:45.681Z,2.16
2019-03-19T20:20:52.219Z,2.11
2019-03-19T20:23:19.481Z,2.08
2019-03-19T20:25:48.962Z,2.15
2019-03-19T20:28:21.974Z,2.22
2019-03-19T20:31:02.288Z,2.26
2019-03-19T20:33:30.783Z,2.24
2019-03-19T20:36:03.550Z,2.21
2019-03-19T20:46:21.762Z,1.94
2019-03-19T20:48:49.967Z,1.86
2019-03-19T20:51:23.550Z,1.77
2019-03-19T20:53:50.720Z,1.70
2019-03-19T20:56:22.125Z,1.65
2019-03-19T21:01:22.391Z,1.54
2019-03-19T21:03:51.587Z,1.49
2019-03-19T21:06:19.120Z,1.46
2019-03-19T21:11:36.356Z,1.41
2019-03-19T21:19:10.201Z,1.43
2019-03-19T21:21:42.552Z,1.45
2019-03-19T21:24:23.788Z,1.42
2019-03-19T21:26:51.056Z,1.40
2019-03-19T21:29:22.709Z,1.39
2019-03-19T21:31:50.969Z,1.33
2019-03-19T21:34:28.581Z,1.27
2019-03-19T21:36:56.856Z,1.20
2019-03-19T21:39:29.193Z,1.10
2019-03-19T21:41:57.767Z,1.03
2019-03-19T21:44:28.404Z,0.94
2019-03-19T21:47:02.637Z,0.90
2019-03-19T21:52:24.971Z,0.73
2019-03-19T21:57:34.912Z,0.64
2019-03-19T22:00:02.130Z,0.61
2019-03-19T22:02:31.055Z,0.57
2019-03-19T22:04:58.105Z,0.46
2019-03-19T22:07:25.564Z,0.41
2019-03-19T22:09:52.608Z,0.36
2019-03-19T22:12:19.639Z,0.35
2019-03-19T22:14:47.013Z,0.37
2019-03-19T22:17:14.047Z,0.41
2019-03-19T22:19:41.092Z,0.45
2019-03-19T22:22:08.288Z,0.51
2019-03-19T22:24:35.332Z,0.50
2019-03-19T22:27:02.370Z,0.47
2019-03-19T22:29:29.569Z,0.44
2019-03-19T22:31:56.615Z,0.42
2019-03-19T22:34:23.908Z,0.41
2019-03-19T22:36:51.284Z,0.38
2019-03-19T22:39:18.621Z,0.34
2019-03-19T22:41:45.676Z,0.31
2019-03-19T22:44:13.021Z,0.28
2019-03-19T22:46:40.207Z,0.27
2019-03-19T22:49:07.238Z,0.26
2019-03-19T22:51:34.592Z,0.25
2019-03-19T22:54:01.945Z,0.21
2019-03-19T22:56:29.240Z,0.17
2019-03-19T22:58:56.555Z,0.07
2019-03-19T23:01:25.022Z,0.00
2019-03-19T23:03:52.392Z,-0.05
2019-03-19T23:06:19.440Z,-0.08
2019-03-19T23:08:46.777Z,-0.13
2019-03-19T23:11:13.836Z,-0.16
2019-03-19T23:13:40.886Z,-0.19
2019-03-19T23:16:08.232Z,-0.22
2019-03-19T23:18:35.689Z,-0.26
2019-03-19T23:21:02.752Z,-0.26
2019-03-19T23:23:30.215Z,-0.26
2019-03-19T23:25:57.268Z,-0.29
2019-03-19T23:28:24.597Z,-0.32
2019-03-19T23:30:53.266Z,-0.34
2019-03-19T23:33:20.544Z,-0.33
2019-03-19T23:35:47.590Z,-0.31
2019-03-19T23:38:14.941Z,-0.27
2019-03-19T23:40:41.989Z,-0.26
2019-03-19T23:43:09.025Z,-0.20
2019-03-19T23:45:36.067Z,0.06
2019-03-19T23:48:03.105Z,0.45
2019-03-19T23:50:30.148Z,0.74
2019-03-19T23:52:57.427Z,0.94
2019-03-19T23:55:24.480Z,1.03
2019-03-19T23:57:51.837Z,1.15
